Time;durP1;ratioP1;P1;durP2;ratioP2;P2;SDS_P1;SDS_P2;PMS_P1;PMS_P2;Temp;Humidity;BMP_temperature;BMP_pressure;BME280_temperature;BME280_humidity;BME280_pressure;Samples;Min_cycle;Max_cycle;Signal;HPM_P1;HPM_P2
2022/05/21 00:00:53;;;;;;;;;;;12.30;99.90;;;;;;5054425;28;19947;-79
2022/05/21 00:03:20;;;;;;;;;;;12.20;99.90;;;;;;5050735;28;20284;-79
2022/05/21 00:05:47;;;;;;;;;;;12.20;99.90;;;;;;5034555;28;19921;-79
2022/05/21 00:08:14;;;;;;;;;;;12.10;99.90;;;;;;5052866;28;19928;-81
2022/05/21 00:10:41;;;;;;;;;;;12.10;99.90;;;;;;5041839;28;19965;-85
2022/05/21 00:13:08;;;;;;;;;;;12.00;99.90;;;;;;5072188;28;19950;-83
2022/05/21 00:15:36;;;;;;;;;;;12.00;99.90;;;;;;5045454;28;19927;-85
2022/05/21 00:18:05;;;;;;;;;;;11.90;99.90;;;;;;5072981;28;20041;-85
2022/05/21 00:20:50;;;;;;;;;;;11.90;99.90;;;;;;5053087;28;20564;-86
2022/05/21 00:23:18;;;;;;;;;;;11.90;99.90;;;;;;5040734;28;20268;-85
2022/05/21 00:25:46;;;;;;;;;;;11.80;99.90;;;;;;5049755;28;19943;-85
2022/05/21 00:28:13;;;;;;;;;;;11.70;99.90;;;;;;5058908;28;19940;-84
2022/05/21 00:30:40;;;;;;;;;;;11.70;99.90;;;;;;5056313;28;19962;-81
2022/05/21 00:33:08;;;;;;;;;;;11.70;99.90;;;;;;5074937;28;19964;-82
2022/05/21 00:35:35;;;;;;;;;;;11.60;99.90;;;;;;5051678;28;19927;-85
2022/05/21 00:38:07;;;;;;;;;;;11.60;99.90;;;;;;5053979;28;19927;-82
2022/05/21 00:40:36;;;;;;;;;;;11.60;99.90;;;;;;5055989;28;19934;-81
2022/05/21 00:43:03;;;;;;;;;;;11.60;99.90;;;;;;5056294;28;19931;-82
2022/05/21 00:45:30;;;;;;;;;;;11.50;99.90;;;;;;5055387;28;19931;-80
2022/05/21 00:47:58;;;;;;;;;;;11.50;99.90;;;;;;5057398;28;20061;-79
2022/05/21 00:50:28;;;;;;;;;;;11.50;99.90;;;;;;5056274;28;20303;-79
2022/05/21 00:52:57;;;;;;;;;;;11.50;99.90;;;;;;5050933;28;19966;-79
2022/05/21 00:55:27;;;;;;;;;;;11.50;99.90;;;;;;5073266;28;19931;-79
2022/05/21 01:00:38;;;;;;;;;;;11.40;99.90;;;;;;5060911;28;19940;-80
2022/05/21 01:03:05;;;;;;;;;;;11.40;99.90;;;;;;5079931;28;20564;-80
2022/05/21 01:05:34;;;;;;;;;;;11.00;99.90;;;;;;5084343;28;19959;-79
2022/05/21 01:08:02;;;;;;;;;;;11.30;99.90;;;;;;5062770;28;19992;-79
2022/05/21 01:10:33;;;;;;;;;;;11.30;99.90;;;;;;5074984;28;20376;-79
2022/05/21 01:13:02;;;;;;;;;;;11.30;99.90;;;;;;5061469;28;20068;-77
2022/05/21 01:15:29;;;;;;;;;;;11.30;99.90;;;;;;5064520;28;19950;-79
2022/05/21 01:17:57;;;;;;;;;;;11.30;99.90;;;;;;5080602;28;20429;-78
2022/05/21 01:20:34;;;;;;;;;;;11.30;99.90;;;;;;5063435;28;19935;-79
2022/05/21 01:23:02;;;;;;;;;;;11.30;99.90;;;;;;5062867;28;20684;-79
2022/05/21 01:25:31;;;;;;;;;;;11.30;99.90;;;;;;5062381;28;19928;-79
2022/05/21 01:27:58;;;;;;;;;;;11.30;99.90;;;;;;5064087;28;19920;-78
2022/05/21 01:30:28;;;;;;;;;;;11.30;99.90;;;;;;5073837;28;19921;-78
2022/05/21 01:32:55;;;;;;;;;;;11.30;99.90;;;;;;5045422;28;19930;-78
2022/05/21 01:35:22;;;;;;;;;;;11.30;99.90;;;;;;5042631;28;20325;-76
2022/05/21 01:37:49;;;;;;;;;;;11.40;99.90;;;;;;5064773;28;20417;-77
2022/05/21 01:40:18;;;;;;;;;;;11.50;99.90;;;;;;5056503;28;20260;-79
2022/05/21 01:44:37;;;;;;;;;;;11.60;99.90;;;;;;5061003;28;19958;-81
2022/05/21 01:45:32;;;;;;;;;;;11.70;99.90;;;;;;5061741;28;20325;-83
2022/05/21 01:47:59;;;;;;;;;;;11.90;99.90;;;;;;5079749;28;19946;-83
2022/05/21 01:50:26;;;;;;;;;;;11.90;99.90;;;;;;5062409;28;19947;-85
2022/05/21 01:52:53;;;;;;;;;;;12.00;99.90;;;;;;5062716;28;19931;-84
2022/05/21 01:55:22;;;;;;;;;;;12.10;99.90;;;;;;5060950;28;20607;-82
2022/05/21 01:57:50;;;;;;;;;;;12.10;99.90;;;;;;5062287;28;19920;-84
2022/05/21 02:00:17;;;;;;;;;;;12.10;99.90;;;;;;5060961;28;19972;-84
2022/05/21 02:02:44;;;;;;;;;;;12.10;99.90;;;;;;5059246;28;19931;-85
2022/05/21 02:05:11;;;;;;;;;;;12.00;99.90;;;;;;5059600;28;19965;-84
2022/05/21 02:07:40;;;;;;;;;;;12.00;99.90;;;;;;5059658;28;19912;-84
2022/05/21 02:10:08;;;;;;;;;;;12.00;99.90;;;;;;5051914;28;19991;-80
2022/05/21 02:12:36;;;;;;;;;;;12.00;99.90;;;;;;5059662;28;19974;-80
2022/05/21 02:15:04;;;;;;;;;;;11.90;99.90;;;;;;5069940;28;19979;-80
2022/05/21 02:17:30;;;;;;;;;;;11.90;99.90;;;;;;5061141;28;19924;-84
2022/05/21 02:19:57;;;;;;;;;;;11.80;99.90;;;;;;5061415;28;20013;-82
2022/05/21 02:22:25;;;;;;;;;;;11.80;99.90;;;;;;5061100;28;20031;-85
2022/05/21 02:24:52;;;;;;;;;;;11.80;99.90;;;;;;5078547;28;20015;-81
2022/05/21 02:27:18;;;;;;;;;;;11.90;99.90;;;;;;5060674;28;20371;-83
2022/05/21 02:29:47;;;;;;;;;;;11.90;99.90;;;;;;5062916;28;19920;-82
2022/05/21 02:32:14;;;;;;;;;;;12.10;99.90;;;;;;5061657;28;20248;-82
2022/05/21 02:34:42;;;;;;;;;;;12.20;99.90;;;;;;5061807;28;19935;-83
2022/05/21 02:40:18;;;;;;;;;;;12.30;99.90;;;;;;5000469;28;19917;-79
2022/05/21 02:42:45;;;;;;;;;;;12.40;99.90;;;;;;5046183;28;19932;-83
2022/05/21 02:45:17;;;;;;;;;;;12.50;99.90;;;;;;5062941;28;19932;-83
2022/05/21 02:47:44;;;;;;;;;;;12.60;99.90;;;;;;5050738;28;20541;-81
2022/05/21 02:50:13;;;;;;;;;;;12.60;99.90;;;;;;5041501;28;20283;-80
2022/05/21 02:52:49;;;;;;;;;;;12.60;99.90;;;;;;5041772;28;19920;-81
2022/05/21 02:55:16;;;;;;;;;;;12.70;99.90;;;;;;5042906;28;19920;-83
2022/05/21 02:57:44;;;;;;;;;;;12.70;99.90;;;;;;5042338;28;19927;-83
2022/05/21 03:00:13;;;;;;;;;;;12.80;99.90;;;;;;5043132;28;19956;-81
2022/05/21 03:02:42;;;;;;;;;;;12.80;99.90;;;;;;5042807;28;19921;-81
2022/05/21 03:05:09;;;;;;;;;;;12.90;99.90;;;;;;5042440;28;19943;-80
2022/05/21 03:07:37;;;;;;;;;;;12.90;99.90;;;;;;5048726;28;19963;-83
2022/05/21 03:10:21;;;;;;;;;;;12.90;99.90;;;;;;5041790;28;19986;-80
2022/05/21 03:12:49;;;;;;;;;;;12.90;99.90;;;;;;5040543;28;19920;-79
2022/05/21 03:15:16;;;;;;;;;;;13.00;99.90;;;;;;5051451;28;19970;-78
2022/05/21 03:17:44;;;;;;;;;;;13.00;99.90;;;;;;5058286;28;19921;-79
2022/05/21 03:20:13;;;;;;;;;;;13.00;99.90;;;;;;5060225;28;19931;-78
2022/05/21 03:22:40;;;;;;;;;;;13.10;99.90;;;;;;5063310;28;19936;-80
2022/05/21 03:25:08;;;;;;;;;;;13.10;99.90;;;;;;5054651;28;19927;-82
2022/05/21 03:27:35;;;;;;;;;;;13.20;99.90;;;;;;5055705;28;20306;-80
2022/05/21 03:30:03;;;;;;;;;;;13.20;99.90;;;;;;5063681;28;20026;-79
2022/05/21 03:32:30;;;;;;;;;;;13.20;99.90;;;;;;5053592;28;20383;-80
2022/05/21 03:34:58;;;;;;;;;;;13.30;99.90;;;;;;5054026;28;20291;-78
2022/05/21 03:37:25;;;;;;;;;;;13.30;99.90;;;;;;5056035;28;20706;-80
2022/05/21 03:39:52;;;;;;;;;;;13.30;99.90;;;;;;5058177;28;19976;-79
2022/05/21 03:42:19;;;;;;;;;;;13.40;99.90;;;;;;5045471;28;19932;-78
2022/05/21 03:44:46;;;;;;;;;;;13.40;99.90;;;;;;5066077;28;20019;-80
2022/05/21 03:47:14;;;;;;;;;;;13.40;99.90;;;;;;5056255;28;19926;-83
2022/05/21 03:49:40;;;;;;;;;;;13.40;99.90;;;;;;5061989;28;19925;-79
2022/05/21 03:52:09;;;;;;;;;;;13.40;99.90;;;;;;5065136;28;19966;-76
2022/05/21 03:54:36;;;;;;;;;;;13.50;99.90;;;;;;5076174;28;19921;-76
2022/05/21 03:57:04;;;;;;;;;;;13.50;99.90;;;;;;5055821;28;19925;-80
2022/05/21 03:59:31;;;;;;;;;;;13.50;99.90;;;;;;5056993;28;19939;-80
2022/05/21 04:01:58;;;;;;;;;;;13.50;99.90;;;;;;5074100;28;20261;-78
2022/05/21 04:04:25;;;;;;;;;;;13.50;99.90;;;;;;5080440;28;19963;-77
2022/05/21 04:06:52;;;;;;;;;;;13.60;99.90;;;;;;5081946;28;19938;-79
2022/05/21 04:09:21;;;;;;;;;;;13.60;99.90;;;;;;5082967;28;20196;-80
2022/05/21 04:11:48;;;;;;;;;;;13.60;99.90;;;;;;5081645;28;19920;-79
2022/05/21 04:14:15;;;;;;;;;;;13.60;99.90;;;;;;5081805;28;19924;-76
2022/05/21 04:16:42;;;;;;;;;;;13.60;99.90;;;;;;5065828;28;19927;-78
2022/05/21 04:19:10;;;;;;;;;;;13.60;99.90;;;;;;5079369;28;19920;-77
2022/05/21 04:21:37;;;;;;;;;;;13.60;99.90;;;;;;5064567;28;20024;-78
2022/05/21 04:24:05;;;;;;;;;;;13.60;99.90;;;;;;5077733;28;19982;-77
2022/05/21 04:26:37;;;;;;;;;;;13.60;99.90;;;;;;5049830;28;20019;-82
2022/05/21 04:29:04;;;;;;;;;;;13.90;99.90;;;;;;5055699;28;20016;-77
2022/05/21 04:31:31;;;;;;;;;;;13.60;99.90;;;;;;5066346;22;19935;-79
2022/05/21 04:33:59;;;;;;;;;;;13.60;99.90;;;;;;5041562;28;19920;-77
2022/05/21 04:36:26;;;;;;;;;;;13.60;99.90;;;;;;5033329;28;19963;-76
2022/05/21 04:38:54;;;;;;;;;;;13.60;99.90;;;;;;5037091;28;19925;-76
2022/05/21 04:41:22;;;;;;;;;;;13.60;99.90;;;;;;5017013;28;19936;-77
2022/05/21 04:43:51;;;;;;;;;;;13.70;99.90;;;;;;5015981;28;19956;-76
2022/05/21 04:46:18;;;;;;;;;;;13.70;99.90;;;;;;5016641;28;19921;-76
2022/05/21 04:48:46;;;;;;;;;;;13.70;99.90;;;;;;5034932;28;19996;-79
2022/05/21 04:51:15;;;;;;;;;;;13.80;99.90;;;;;;5037020;28;20283;-80
2022/05/21 04:53:43;;;;;;;;;;;13.80;99.90;;;;;;5031859;28;19928;-79
2022/05/21 04:56:10;;;;;;;;;;;13.90;99.90;;;;;;5058201;22;19928;-78
2022/05/21 04:58:39;;;;;;;;;;;13.90;99.90;;;;;;5058836;28;20589;-78
2022/05/21 05:01:08;;;;;;;;;;;14.00;99.90;;;;;;5039312;28;19924;-80
2022/05/21 05:03:35;;;;;;;;;;;14.00;99.90;;;;;;5039734;28;19921;-78
2022/05/21 05:06:03;;;;;;;;;;;14.10;99.90;;;;;;5040881;28;19932;-78
2022/05/21 05:08:30;;;;;;;;;;;14.20;99.90;;;;;;5039516;28;19956;-76
2022/05/21 05:10:57;;;;;;;;;;;14.20;99.90;;;;;;5038896;28;20015;-78
2022/05/21 05:13:27;;;;;;;;;;;14.30;99.90;;;;;;5039900;28;20593;-79
2022/05/21 05:15:57;;;;;;;;;;;14.30;99.90;;;;;;5038844;28;19928;-77
2022/05/21 05:18:27;;;;;;;;;;;14.40;99.90;;;;;;5040328;28;19958;-80
2022/05/21 05:20:54;;;;;;;;;;;14.40;99.90;;;;;;5039036;28;19932;-77
2022/05/21 05:23:21;;;;;;;;;;;14.50;99.90;;;;;;5037103;28;19921;-78
2022/05/21 05:25:48;;;;;;;;;;;14.60;99.90;;;;;;5037612;28;20368;-77
2022/05/21 05:28:16;;;;;;;;;;;14.70;99.90;;;;;;5038308;28;19948;-76
2022/05/21 05:30:43;;;;;;;;;;;14.80;99.90;;;;;;5034614;28;19920;-77
2022/05/21 05:33:11;;;;;;;;;;;14.90;99.90;;;;;;5037179;28;20035;-76
2022/05/21 05:35:39;;;;;;;;;;;14.90;99.90;;;;;;5037633;28;20376;-77
2022/05/21 05:38:07;;;;;;;;;;;14.90;99.90;;;;;;5050144;28;19924;-77
2022/05/21 05:40:36;;;;;;;;;;;14.90;99.90;;;;;;5037913;28;20323;-79
2022/05/21 05:43:03;;;;;;;;;;;14.90;99.90;;;;;;5041054;28;20296;-82
2022/05/21 05:45:31;;;;;;;;;;;14.90;99.90;;;;;;5050783;28;19944;-79
2022/05/21 05:47:58;;;;;;;;;;;15.00;99.90;;;;;;5050238;28;19982;-79
2022/05/21 05:50:25;;;;;;;;;;;15.00;99.90;;;;;;5036044;28;19996;-78
2022/05/21 05:52:56;;;;;;;;;;;14.90;99.90;;;;;;5033947;28;19931;-78
2022/05/21 05:55:23;;;;;;;;;;;14.90;99.90;;;;;;5043374;28;19921;-77
2022/05/21 05:57:50;;;;;;;;;;;15.00;99.90;;;;;;5035641;28;20015;-78
2022/05/21 06:00:17;;;;;;;;;;;15.10;99.90;;;;;;5056794;23;19924;-72
2022/05/21 06:02:58;;;;;;;;;;;15.20;99.90;;;;;;5046213;28;19931;-73
2022/05/21 06:05:26;;;;;;;;;;;15.20;99.90;;;;;;5046143;28;19925;-71
2022/05/21 06:07:56;;;;;;;;;;;15.20;99.90;;;;;;5034595;28;19924;-72
2022/05/21 06:10:25;;;;;;;;;;;15.20;99.90;;;;;;5030189;28;19957;-72
2022/05/21 06:12:52;;;;;;;;;;;15.20;99.90;;;;;;5047028;28;19936;-71
2022/05/21 06:15:19;;;;;;;;;;;15.30;99.90;;;;;;5028179;28;19931;-72
2022/05/21 06:17:46;;;;;;;;;;;15.30;99.90;;;;;;5037515;28;20285;-72
2022/05/21 06:20:15;;;;;;;;;;;15.40;99.90;;;;;;5031975;28;19971;-73
2022/05/21 06:22:42;;;;;;;;;;;15.50;99.90;;;;;;5066496;28;20372;-73
2022/05/21 06:25:11;;;;;;;;;;;15.60;99.90;;;;;;5043599;28;19952;-72
2022/05/21 06:27:40;;;;;;;;;;;15.70;99.90;;;;;;5048645;28;20016;-73
2022/05/21 06:30:07;;;;;;;;;;;15.80;99.90;;;;;;5048305;28;19924;-72
2022/05/21 06:32:34;;;;;;;;;;;15.90;99.90;;;;;;5051875;28;19921;-73
2022/05/21 06:35:03;;;;;;;;;;;16.00;99.90;;;;;;5049855;28;20338;-72
2022/05/21 06:37:30;;;;;;;;;;;15.90;99.90;;;;;;5054565;28;20385;-72
2022/05/21 06:39:57;;;;;;;;;;;15.90;99.90;;;;;;5050443;28;19925;-73
2022/05/21 06:42:25;;;;;;;;;;;15.90;99.90;;;;;;5046351;28;19955;-73
2022/05/21 06:44:52;;;;;;;;;;;15.90;99.90;;;;;;5049198;28;20386;-72
2022/05/21 06:47:19;;;;;;;;;;;16.00;99.90;;;;;;5043998;28;20378;-71
2022/05/21 06:49:46;;;;;;;;;;;16.00;99.90;;;;;;5048413;28;19924;-70
2022/05/21 06:52:13;;;;;;;;;;;16.00;99.90;;;;;;5047497;28;19924;-71
2022/05/21 06:54:40;;;;;;;;;;;16.00;99.90;;;;;;5048294;28;19935;-71
2022/05/21 06:57:08;;;;;;;;;;;16.00;99.90;;;;;;5042830;28;19954;-71
2022/05/21 06:59:36;;;;;;;;;;;16.00;99.90;;;;;;5050398;28;19932;-72
2022/05/21 07:02:03;;;;;;;;;;;16.00;99.90;;;;;;5047405;28;20463;-72
2022/05/21 07:07:34;;;;;;;;;;;16.00;99.90;;;;;;5042194;28;20406;-72
2022/05/21 07:10:03;;;;;;;;;;;15.90;99.90;;;;;;5028788;28;19924;-72
2022/05/21 07:12:31;;;;;;;;;;;15.90;99.90;;;;;;5046997;28;20247;-71
2022/05/21 07:14:59;;;;;;;;;;;15.90;99.90;;;;;;5046479;28;19982;-71
2022/05/21 07:17:25;;;;;;;;;;;16.90;99.90;;;;;;5044809;28;19929;-71
2022/05/21 07:19:52;;;;;;;;;;;15.90;99.90;;;;;;5042945;28;19920;-72
2022/05/21 07:22:19;;;;;;;;;;;16.00;99.90;;;;;;5046211;28;19925;-72
2022/05/21 07:24:46;;;;;;;;;;;16.00;99.90;;;;;;5039983;28;19968;-72
2022/05/21 07:27:13;;;;;;;;;;;15.90;99.90;;;;;;5041713;28;19921;-72
2022/05/21 07:29:39;;;;;;;;;;;16.00;99.90;;;;;;5045075;28;20039;-71
2022/05/21 07:32:15;;;;;;;;;;;15.90;99.90;;;;;;5040738;28;19929;-72
2022/05/21 07:34:42;;;;;;;;;;;15.90;99.90;;;;;;5047032;28;19925;-72
2022/05/21 07:37:08;;;;;;;;;;;15.90;99.90;;;;;;5027729;28;19928;-71
2022/05/21 07:39:35;;;;;;;;;;;16.00;99.90;;;;;;5041498;28;19936;-71
2022/05/21 07:42:04;;;;;;;;;;;16.10;99.90;;;;;;5048208;28;19967;-71
2022/05/21 07:44:31;;;;;;;;;;;16.20;99.90;;;;;;5048540;28;19924;-72
2022/05/21 07:46:57;;;;;;;;;;;16.20;99.90;;;;;;5047167;28;19928;-70
2022/05/21 07:49:26;;;;;;;;;;;16.20;99.90;;;;;;5051399;28;19924;-71
2022/05/21 07:51:52;;;;;;;;;;;16.10;99.90;;;;;;5049999;28;19931;-72
2022/05/21 07:54:21;;;;;;;;;;;16.10;99.90;;;;;;5052752;28;19924;-70
2022/05/21 07:56:47;;;;;;;;;;;16.10;99.90;;;;;;5033333;28;19999;-71
2022/05/21 07:59:14;;;;;;;;;;;16.20;99.90;;;;;;5035672;28;20011;-70
2022/05/21 08:01:43;;;;;;;;;;;16.20;99.90;;;;;;5034437;28;19925;-71
2022/05/21 08:04:09;;;;;;;;;;;16.30;99.90;;;;;;5539856;22;19954;-71
2022/05/21 08:06:38;;;;;;;;;;;16.30;99.90;;;;;;5067463;28;19924;-71
2022/05/21 08:09:04;;;;;;;;;;;16.60;99.90;;;;;;5048513;28;20031;-71
2022/05/21 08:11:31;;;;;;;;;;;17.00;99.90;;;;;;5066078;28;19955;-71
2022/05/21 08:13:58;;;;;;;;;;;17.20;99.90;;;;;;5066317;28;19924;-71
2022/05/21 08:16:25;;;;;;;;;;;17.30;99.90;;;;;;5054694;28;20140;-70
2022/05/21 08:18:52;;;;;;;;;;;17.30;99.90;;;;;;5044708;28;19924;-71
2022/05/21 08:21:19;;;;;;;;;;;17.20;99.90;;;;;;5065187;28;20335;-70
2022/05/21 08:29:15;;;;;;;;;;;17.30;99.90;;;;;;5026485;28;19927;-71
2022/05/21 08:31:42;;;;;;;;;;;17.30;99.90;;;;;;5027621;28;19921;-71
2022/05/21 08:34:09;;;;;;;;;;;17.30;99.90;;;;;;5034519;28;19932;-71
2022/05/21 08:36:35;;;;;;;;;;;17.50;99.90;;;;;;5025203;28;20363;-71
2022/05/21 08:39:04;;;;;;;;;;;17.80;99.90;;;;;;5026488;28;19925;-70
2022/05/21 08:41:31;;;;;;;;;;;18.10;99.90;;;;;;5025517;28;20251;-71
2022/05/21 08:44:01;;;;;;;;;;;18.50;99.90;;;;;;5028925;28;19935;-71
2022/05/21 08:46:34;;;;;;;;;;;18.70;99.90;;;;;;5025052;28;19975;-70
2022/05/21 08:49:02;;;;;;;;;;;19.00;99.90;;;;;;5029150;28;19925;-70
2022/05/21 08:51:32;;;;;;;;;;;19.10;99.90;;;;;;5009085;28;19932;-71
2022/05/21 08:53:59;;;;;;;;;;;19.00;99.90;;;;;;5008562;28;20348;-70
2022/05/21 08:56:27;;;;;;;;;;;19.00;99.90;;;;;;5024771;28;19940;-70
2022/05/21 08:58:56;;;;;;;;;;;18.90;99.90;;;;;;5008136;28;19921;-70
2022/05/21 09:01:25;;;;;;;;;;;18.80;99.90;;;;;;5026926;28;19993;-71
2022/05/21 09:03:53;;;;;;;;;;;18.80;99.90;;;;;;5031467;28;20015;-70
2022/05/21 09:06:28;;;;;;;;;;;18.80;99.90;;;;;;5006643;28;20083;-70
2022/05/21 09:08:57;;;;;;;;;;;18.80;99.90;;;;;;5008800;28;19928;-70
2022/05/21 09:11:29;;;;;;;;;;;19.00;99.90;;;;;;5025241;28;20021;-70
2022/05/21 09:14:00;;;;;;;;;;;19.40;99.90;;;;;;5024294;28;20322;-71
2022/05/21 09:19:11;;;;;;;;;;;19.00;99.90;;;;;;5000542;28;19952;-71
2022/05/21 09:21:40;;;;;;;;;;;19.30;99.90;;;;;;5015586;28;19952;-70
2022/05/21 09:24:08;;;;;;;;;;;19.60;99.90;;;;;;5022750;28;19987;-71
2022/05/21 09:26:45;;;;;;;;;;;20.00;99.90;;;;;;5028208;28;20354;-71
2022/05/21 09:29:16;;;;;;;;;;;20.00;99.90;;;;;;5011630;28;19925;-71
2022/05/21 09:31:43;;;;;;;;;;;19.80;99.90;;;;;;5029145;28;19943;-71
2022/05/21 09:34:16;;;;;;;;;;;19.50;99.90;;;;;;5026900;28;19925;-71
2022/05/21 09:36:43;;;;;;;;;;;19.30;99.90;;;;;;5033598;28;19951;-71
2022/05/21 09:39:10;;;;;;;;;;;19.20;99.90;;;;;;5028059;28;19924;-71
2022/05/21 09:41:37;;;;;;;;;;;19.30;99.90;;;;;;5021373;28;19925;-71
2022/05/21 09:47:11;;;;;;;;;;;19.40;99.90;;;;;;5036921;28;19925;-72
2022/05/21 09:49:39;;;;;;;;;;;19.40;99.90;;;;;;5026887;28;19933;-72
2022/05/21 09:52:06;;;;;;;;;;;19.50;99.90;;;;;;5028779;28;19925;-72
2022/05/21 09:54:34;;;;;;;;;;;19.80;99.90;;;;;;5031009;28;19932;-72
2022/05/21 09:57:01;;;;;;;;;;;20.20;99.90;;;;;;5005055;28;19921;-73
2022/05/21 09:59:29;;;;;;;;;;;20.40;99.90;;;;;;5028828;28;19929;-72
2022/05/21 10:01:57;;;;;;;;;;;20.60;99.90;;;;;;5021708;28;19921;-72
2022/05/21 10:04:28;;;;;;;;;;;20.80;99.90;;;;;;5565619;22;19964;-72
2022/05/21 10:06:58;;;;;;;;;;;20.90;99.90;;;;;;5061428;28;20031;-73
2022/05/21 10:12:15;;;;;;;;;;;21.00;99.90;;;;;;5043054;28;19939;-72
2022/05/21 10:14:44;;;;;;;;;;;21.20;99.90;;;;;;5030411;28;19924;-72
2022/05/21 10:17:19;;;;;;;;;;;21.30;99.90;;;;;;5049112;28;19986;-72
2022/05/21 10:19:54;;;;;;;;;;;21.40;99.90;;;;;;5077579;23;19946;-80
2022/05/21 10:22:26;;;;;;;;;;;21.30;99.90;;;;;;5071770;28;19924;-81
2022/05/21 10:24:56;;;;;;;;;;;20.50;99.90;;;;;;5058031;28;19924;-81
2022/05/21 10:27:31;;;;;;;;;;;22.20;99.90;;;;;;5058149;28;19931;-80
2022/05/21 10:30:07;;;;;;;;;;;22.20;99.90;;;;;;5059901;28;20014;-78
2022/05/21 10:32:39;;;;;;;;;;;22.30;99.90;;;;;;5062230;28;19997;-77
2022/05/21 10:35:20;;;;;;;;;;;22.40;99.90;;;;;;5063402;28;19927;-80
2022/05/21 10:40:19;;;;;;;;;;;22.50;99.90;;;;;;5058655;28;20160;-77
2022/05/21 10:42:53;;;;;;;;;;;22.50;99.90;;;;;;5068091;28;19930;-78
2022/05/21 10:45:23;;;;;;;;;;;22.30;99.90;;;;;;5050054;28;19939;-78
2022/05/21 10:48:10;;;;;;;;;;;21.80;99.90;;;;;;5052684;28;19964;-77
2022/05/21 10:50:41;;;;;;;;;;;21.90;99.90;;;;;;5021223;28;19940;-77
2022/05/21 10:53:31;;;;;;;;;;;21.90;99.90;;;;;;5039433;28;20050;-77
2022/05/21 10:56:03;;;;;;;;;;;22.10;99.90;;;;;;5019015;28;19920;-77
2022/05/21 10:58:36;;;;;;;;;;;22.30;99.90;;;;;;5034649;28;19945;-77
2022/05/21 11:01:10;;;;;;;;;;;22.50;99.90;;;;;;5019477;28;19924;-77
2022/05/21 11:03:44;;;;;;;;;;;22.70;99.90;;;;;;5036063;28;19951;-77
2022/05/21 11:06:26;;;;;;;;;;;23.10;99.90;;;;;;5028615;28;20553;-78
2022/05/21 11:09:02;;;;;;;;;;;23.40;99.90;;;;;;5015665;28;20146;-77
2022/05/21 11:11:33;;;;;;;;;;;23.40;99.90;;;;;;5034168;28;19976;-77
2022/05/21 11:14:02;;;;;;;;;;;23.40;99.90;;;;;;5034434;28;20019;-77
2022/05/21 11:16:31;;;;;;;;;;;23.40;99.90;;;;;;5020423;28;19931;-77
2022/05/21 11:19:01;;;;;;;;;;;23.40;99.90;;;;;;5014982;28;20478;-78
2022/05/21 11:21:34;;;;;;;;;;;23.50;99.90;;;;;;5033885;28;20404;-78
2022/05/21 11:24:03;;;;;;;;;;;23.50;99.90;;;;;;5019266;28;20023;-78
2022/05/21 11:26:33;;;;;;;;;;;23.80;99.90;;;;;;5044413;28;19935;-77
2022/05/21 11:29:02;;;;;;;;;;;23.90;99.90;;;;;;5011358;28;19925;-77
2022/05/21 11:37:21;;;;;;;;;;;23.90;99.90;;;;;;5021170;28;19947;-77
2022/05/21 11:39:48;;;;;;;;;;;23.70;99.90;;;;;;5021687;28;19925;-77
2022/05/21 11:42:19;;;;;;;;;;;23.40;99.90;;;;;;5017868;28;19935;-77
2022/05/21 11:44:59;;;;;;;;;;;23.10;99.90;;;;;;5033457;28;19933;-77
2022/05/21 11:47:33;;;;;;;;;;;22.90;99.90;;;;;;5010763;28;19936;-76
2022/05/21 11:50:07;;;;;;;;;;;22.90;99.90;;;;;;5036601;28;19983;-77
2022/05/21 11:52:52;;;;;;;;;;;22.70;99.90;;;;;;5031080;28;19925;-77
2022/05/21 11:55:20;;;;;;;;;;;22.60;99.90;;;;;;5045346;28;19924;-77
2022/05/21 11:57:48;;;;;;;;;;;22.40;99.90;;;;;;5016987;28;20020;-77
2022/05/21 12:00:33;;;;;;;;;;;22.40;99.90;;;;;;5026238;28;19931;-77
2022/05/21 12:03:17;;;;;;;;;;;22.30;99.90;;;;;;5015962;28;19932;-77
2022/05/21 12:05:53;;;;;;;;;;;22.20;99.90;;;;;;5033591;28;20358;-77
2022/05/21 12:08:35;;;;;;;;;;;22.10;99.90;;;;;;5008490;28;20039;-77
2022/05/21 12:11:05;;;;;;;;;;;21.90;99.90;;;;;;5011356;28;19978;-77
2022/05/21 12:13:49;;;;;;;;;;;21.80;99.90;;;;;;5031517;28;19921;-77
2022/05/21 12:16:42;;;;;;;;;;;21.70;99.90;;;;;;5021304;28;19956;-77
2022/05/21 12:19:09;;;;;;;;;;;21.60;99.90;;;;;;4966060;28;19925;-77
2022/05/21 12:21:54;;;;;;;;;;;21.70;99.90;;;;;;5026936;28;19936;-77
2022/05/21 12:24:36;;;;;;;;;;;21.80;99.90;;;;;;5046440;28;19935;-78
2022/05/21 12:27:03;;;;;;;;;;;22.00;99.90;;;;;;5000680;28;20385;-78
2022/05/21 12:29:33;;;;;;;;;;;22.00;99.90;;;;;;5027742;28;20003;-78
2022/05/21 12:32:02;;;;;;;;;;;22.20;99.90;;;;;;5010798;28;20195;-77
2022/05/21 12:34:39;;;;;;;;;;;22.50;99.90;;;;;;5012091;28;20051;-76
2022/05/21 12:37:09;;;;;;;;;;;23.00;99.90;;;;;;5024060;28;19925;-79
2022/05/21 12:39:43;;;;;;;;;;;23.50;99.90;;;;;;5013223;28;19931;-77
2022/05/21 12:42:13;;;;;;;;;;;23.90;99.90;;;;;;5028887;28;19963;-77
2022/05/21 12:44:44;;;;;;;;;;;24.00;99.90;;;;;;5030560;28;19987;-78
2022/05/21 12:47:12;;;;;;;;;;;24.10;99.90;;;;;;5036422;28;19935;-78
2022/05/21 12:49:46;;;;;;;;;;;24.30;99.90;;;;;;5034085;28;20032;-77
2022/05/21 12:52:19;;;;;;;;;;;24.40;99.90;;;;;;5035453;28;19977;-78
2022/05/21 12:54:48;;;;;;;;;;;24.70;99.90;;;;;;5014845;28;19925;-78
2022/05/21 12:57:16;;;;;;;;;;;25.10;99.90;;;;;;5015353;28;19967;-78
2022/05/21 12:59:43;;;;;;;;;;;25.30;99.90;;;;;;5029404;28;20277;-77
2022/05/21 13:02:12;;;;;;;;;;;25.20;99.90;;;;;;5039992;28;19921;-78
2022/05/21 13:04:41;;;;;;;;;;;24.90;99.90;;;;;;5031613;28;20115;-76
2022/05/21 13:07:13;;;;;;;;;;;24.50;99.90;;;;;;5041423;28;19924;-77
2022/05/21 13:09:50;;;;;;;;;;;24.00;99.90;;;;;;5037001;28;19928;-77
2022/05/21 13:12:18;;;;;;;;;;;23.50;99.90;;;;;;5030120;28;19929;-76
2022/05/21 13:14:47;;;;;;;;;;;23.00;99.90;;;;;;5035690;28;19925;-81
2022/05/21 13:17:22;;;;;;;;;;;22.70;99.90;;;;;;5020253;28;19921;-81
2022/05/21 13:20:02;;;;;;;;;;;22.40;99.90;;;;;;5042986;28;20169;-82
2022/05/21 13:22:51;;;;;;;;;;;22.20;99.90;;;;;;5019669;28;19925;-81
2022/05/21 13:25:19;;;;;;;;;;;22.10;99.90;;;;;;5019898;28;20365;-80
2022/05/21 13:27:48;;;;;;;;;;;22.20;99.90;;;;;;5044842;28;19928;-80
2022/05/21 13:30:16;;;;;;;;;;;22.20;99.90;;;;;;5028152;28;20317;-79
2022/05/21 13:32:45;;;;;;;;;;;22.40;99.90;;;;;;5033695;28;19925;-79
2022/05/21 13:35:23;;;;;;;;;;;22.50;99.90;;;;;;5012825;28;19929;-81
2022/05/21 13:37:50;;;;;;;;;;;23.00;99.90;;;;;;5011146;28;19933;-81
2022/05/21 13:40:20;;;;;;;;;;;22.90;99.90;;;;;;5034168;28;20349;-83
2022/05/21 13:42:50;;;;;;;;;;;23.00;99.90;;;;;;5030967;28;19925;-79
2022/05/21 13:45:20;;;;;;;;;;;22.90;99.90;;;;;;5028024;28;19925;-81
2022/05/21 13:47:49;;;;;;;;;;;22.40;99.90;;;;;;5044561;28;19968;-82
2022/05/21 13:50:18;;;;;;;;;;;22.40;99.90;;;;;;5049961;28;19920;-82
2022/05/21 13:52:46;;;;;;;;;;;22.30;99.90;;;;;;5030287;28;19936;-80
2022/05/21 13:55:14;;;;;;;;;;;22.40;99.90;;;;;;5029575;28;19924;-79
2022/05/21 13:57:43;;;;;;;;;;;22.80;99.90;;;;;;5039548;28;19921;-81
2022/05/21 14:00:25;;;;;;;;;;;22.80;99.90;;;;;;5044080;28;20016;-80
2022/05/21 14:02:54;;;;;;;;;;;22.90;99.90;;;;;;5034409;28;19953;-81
2022/05/21 14:05:33;;;;;;;;;;;23.00;99.90;;;;;;5016568;28;20366;-79
2022/05/21 14:08:01;;;;;;;;;;;22.90;99.90;;;;;;5017180;28;19956;-79
2022/05/21 14:10:39;;;;;;;;;;;22.90;99.90;;;;;;5032979;28;19928;-80
2022/05/21 14:13:08;;;;;;;;;;;22.90;99.90;;;;;;5028802;28;19986;-79
2022/05/21 14:15:38;;;;;;;;;;;22.30;99.90;;;;;;5014921;28;19979;-79
2022/05/21 14:18:06;;;;;;;;;;;23.30;99.90;;;;;;5035768;28;19932;-79
2022/05/21 14:20:35;;;;;;;;;;;23.40;99.90;;;;;;5039394;28;19935;-80
2022/05/21 14:23:21;;;;;;;;;;;23.60;99.90;;;;;;5032577;28;19971;-80
2022/05/21 14:25:48;;;;;;;;;;;24.00;99.90;;;;;;5036288;28;20016;-79
2022/05/21 14:28:21;;;;;;;;;;;24.20;99.90;;;;;;5045346;28;19928;-80
2022/05/21 14:30:50;;;;;;;;;;;24.20;99.90;;;;;;5043656;28;20004;-79
2022/05/21 14:33:19;;;;;;;;;;;24.40;99.90;;;;;;5033834;28;19925;-80
2022/05/21 14:35:47;;;;;;;;;;;24.40;99.90;;;;;;5034013;28;20283;-80
2022/05/21 14:38:18;;;;;;;;;;;24.50;99.90;;;;;;5035947;28;19939;-80
2022/05/21 14:40:47;;;;;;;;;;;24.80;99.90;;;;;;5038811;28;20040;-80
2022/05/21 14:43:19;;;;;;;;;;;24.80;99.90;;;;;;5030946;28;19979;-80
2022/05/21 14:45:46;;;;;;;;;;;24.90;99.90;;;;;;5016812;28;19924;-80
2022/05/21 14:48:13;;;;;;;;;;;24.90;99.60;;;;;;5023662;28;19925;-80
2022/05/21 14:53:28;;;;;;;;;;;24.80;98.70;;;;;;5025070;28;19918;-78
2022/05/21 14:55:56;;;;;;;;;;;24.70;98.70;;;;;;5030495;28;19931;-77
2022/05/21 14:58:25;;;;;;;;;;;24.60;98.80;;;;;;5046250;28;19925;-77
2022/05/21 15:00:52;;;;;;;;;;;24.50;98.70;;;;;;5038467;28;19921;-77
2022/05/21 15:03:20;;;;;;;;;;;24.30;98.60;;;;;;5035801;28;20255;-77